createdAt,value
2019-05-18T00:00:02.738Z,9.14
2019-05-18T00:10:02.760Z,8.56
2019-05-18T00:20:02.377Z,8.92
2019-05-18T00:30:03.417Z,8.84
2019-05-18T00:40:02.851Z,8.81
2019-05-18T00:50:02.263Z,8.56
2019-05-18T01:00:03.368Z,8.49
2019-05-18T01:10:02.383Z,8.40
2019-05-18T01:20:03.080Z,8.29
2019-05-18T01:30:02.960Z,8.28
2019-05-18T01:40:02.859Z,8.25
2019-05-18T01:50:02.646Z,8.22
2019-05-18T02:00:02.594Z,8.17
2019-05-18T02:10:02.888Z,8.19
2019-05-18T02:20:02.735Z,8.21
2019-05-18T02:30:02.855Z,8.24
2019-05-18T02:40:02.996Z,8.26
2019-05-18T02:50:02.707Z,8.13
2019-05-18T03:00:03.462Z,8.00
2019-05-18T03:10:02.711Z,7.86
2019-05-18T03:20:02.686Z,7.77
2019-05-18T03:30:02.780Z,7.55
2019-05-18T03:40:03.021Z,7.40
2019-05-18T03:50:02.311Z,7.26
2019-05-18T04:00:03.048Z,7.56
2019-05-18T04:10:02.005Z,8.06
2019-05-18T04:20:02.404Z,8.16
2019-05-18T04:30:02.738Z,8.84
2019-05-18T04:40:02.979Z,9.56
2019-05-18T04:50:05.505Z,10.00
2019-05-18T05:00:02.720Z,10.49
2019-05-18T05:10:04.682Z,10.98
2019-05-18T05:20:02.204Z,11.20
2019-05-18T05:30:03.148Z,11.61
2019-05-18T05:40:02.822Z,12.46
2019-05-18T05:50:02.642Z,12.62
2019-05-18T06:00:02.831Z,13.12
2019-05-18T06:10:02.712Z,14.08
2019-05-18T06:20:02.640Z,14.55
2019-05-18T06:30:03.266Z,14.57
2019-05-18T06:40:02.357Z,14.96
2019-05-18T06:50:02.850Z,14.93
2019-05-18T07:00:03.040Z,15.66
2019-05-18T07:10:02.269Z,17.06
2019-05-18T07:20:02.112Z,18.91
2019-05-18T07:30:02.939Z,17.58
2019-05-18T07:40:02.626Z,17.94
2019-05-18T07:50:02.547Z,18.60
2019-05-18T08:00:08.487Z,18.81
2019-05-18T08:10:02.971Z,19.73
2019-05-18T08:20:02.518Z,19.00
2019-05-18T08:30:03.614Z,20.19
2019-05-18T08:40:02.757Z,20.86
2019-05-18T08:50:02.505Z,19.89
2019-05-18T09:00:03.665Z,20.21
2019-05-18T09:10:02.787Z,19.51
2019-05-18T09:20:02.622Z,20.05
2019-05-18T09:30:02.613Z,19.35
2019-05-18T09:40:02.970Z,20.06
2019-05-18T09:50:02.122Z,21.50
2019-05-18T10:00:03.342Z,22.09
2019-05-18T10:10:02.531Z,22.11
2019-05-18T10:20:02.056Z,22.39
2019-05-18T10:30:03.082Z,22.13
2019-05-18T10:40:02.483Z,21.44
2019-05-18T10:50:02.948Z,23.21
2019-05-18T11:00:03.003Z,22.17
2019-05-18T11:10:03.025Z,21.24
2019-05-18T11:20:02.623Z,21.56
2019-05-18T11:30:04.586Z,23.49
2019-05-18T11:40:02.412Z,21.21
2019-05-18T11:50:02.511Z,21.07
2019-05-18T12:00:02.650Z,21.48
2019-05-18T12:10:02.483Z,23.47
2019-05-18T12:20:02.413Z,23.82
2019-05-18T12:30:02.629Z,23.88
2019-05-18T12:40:02.562Z,22.96
2019-05-18T12:50:02.300Z,23.83
2019-05-18T13:00:03.419Z,22.49
2019-05-18T13:10:02.334Z,22.18
2019-05-18T13:20:02.964Z,22.52
2019-05-18T13:30:02.840Z,21.78
2019-05-18T13:40:02.950Z,22.28
2019-05-18T13:50:02.285Z,22.96
2019-05-18T14:00:03.376Z,21.78
2019-05-18T14:10:02.306Z,22.25
2019-05-18T14:20:02.810Z,22.13
2019-05-18T14:30:02.794Z,23.06
2019-05-18T14:40:03.005Z,21.96
2019-05-18T14:50:02.515Z,21.69
2019-05-18T15:00:03.283Z,21.35
2019-05-18T15:10:02.285Z,21.38
2019-05-18T15:20:02.079Z,21.94
2019-05-18T15:30:03.033Z,22.01
2019-05-18T15:40:02.261Z,22.41
2019-05-18T15:50:02.704Z,22.12
2019-05-18T16:00:06.259Z,22.44
2019-05-18T16:10:02.087Z,21.43
2019-05-18T16:20:02.993Z,21.45
2019-05-18T16:30:02.821Z,21.50
2019-05-18T16:40:02.984Z,21.45
2019-05-18T16:50:02.474Z,21.19
2019-05-18T17:00:03.655Z,21.51
2019-05-18T17:10:02.645Z,21.30
2019-05-18T17:20:02.240Z,20.94
2019-05-18T17:30:03.170Z,20.63
2019-05-18T17:40:02.204Z,20.27
2019-05-18T17:50:02.750Z,20.20
2019-05-18T18:00:03.249Z,20.01
2019-05-18T18:10:02.663Z,19.35
2019-05-18T18:20:02.526Z,18.74
2019-05-18T18:30:03.401Z,18.31
2019-05-18T18:40:03.144Z,17.88
2019-05-18T18:50:02.794Z,17.34
2019-05-18T19:00:02.644Z,17.20
2019-05-18T19:10:02.751Z,16.86
2019-05-18T19:20:02.246Z,16.71
2019-05-18T19:30:03.174Z,16.42
2019-05-18T19:40:02.389Z,16.02
2019-05-18T19:50:02.642Z,15.62
2019-05-18T20:00:03.489Z,15.73
2019-05-18T20:10:02.437Z,15.59
2019-05-18T20:20:03.260Z,14.86
2019-05-18T20:30:02.506Z,13.96
2019-05-18T20:40:02.576Z,14.08
2019-05-18T20:50:02.097Z,13.79
2019-05-18T21:00:03.134Z,13.73
2019-05-18T21:10:02.588Z,13.50
2019-05-18T21:20:03.052Z,13.07
2019-05-18T21:30:03.078Z,13.54
2019-05-18T21:40:02.110Z,14.10
2019-05-18T21:50:02.549Z,13.78
2019-05-18T22:00:02.854Z,13.11
2019-05-18T22:10:02.904Z,12.79
2019-05-18T22:20:02.599Z,12.60
2019-05-18T22:30:03.417Z,12.12
2019-05-18T22:40:02.768Z,12.08
2019-05-18T22:50:02.156Z,12.12
2019-05-18T23:00:02.890Z,12.21
2019-05-18T23:10:02.921Z,11.69
2019-05-18T23:20:02.454Z,11.70
2019-05-18T23:30:03.318Z,10.82
2019-05-18T23:40:02.364Z,10.56
2019-05-18T23:50:02.769Z,10.10
